sensor_id;sensor_type;location;lat;lon;timestamp;pressure;altitude;pressure_sealevel;temperature;humidity
59106;BME280;44891;50.204;8.132;2022-08-30T00:00:50;98561.53;;;13.94;64.02
59106;BME280;44891;50.204;8.132;2022-08-30T00:05:05;98543.34;;;13.97;63.76
59106;BME280;44891;50.204;8.132;2022-08-30T00:09:08;98561.88;;;14.02;63.80
59106;BME280;44891;50.204;8.132;2022-08-30T00:13:10;98556.47;;;13.87;64.45
59106;BME280;44891;50.204;8.132;2022-08-30T00:17:14;98560.72;;;13.61;65.48
59106;BME280;44891;50.204;8.132;2022-08-30T00:21:16;98558.94;;;13.45;66.01
59106;BME280;44891;50.204;8.132;2022-08-30T00:25:19;98568.34;;;13.36;66.08
59106;BME280;44891;50.204;8.132;2022-08-30T00:29:21;98569.63;;;13.55;65.65
59106;BME280;44891;50.204;8.132;2022-08-30T00:33:25;98563.97;;;13.73;64.57
59106;BME280;44891;50.204;8.132;2022-08-30T00:37:27;98556.94;;;13.84;64.05
59106;BME280;44891;50.204;8.132;2022-08-30T00:41:29;98565.28;;;13.71;64.20
59106;BME280;44891;50.204;8.132;2022-08-30T00:45:33;98561.63;;;13.77;64.36
59106;BME280;44891;50.204;8.132;2022-08-30T00:49:38;98562.97;;;13.52;65.17
59106;BME280;44891;50.204;8.132;2022-08-30T00:53:46;98559.06;;;13.11;66.90
59106;BME280;44891;50.204;8.132;2022-08-30T00:57:51;98570.34;;;13.06;66.56
59106;BME280;44891;50.204;8.132;2022-08-30T01:01:54;98566.72;;;13.13;66.31
59106;BME280;44891;50.204;8.132;2022-08-30T01:05:58;98548.59;;;12.94;66.90
59106;BME280;44891;50.204;8.132;2022-08-30T01:10:02;98568.41;;;13.41;65.49
59106;BME280;44891;50.204;8.132;2022-08-30T01:14:05;98561.69;;;13.11;66.78
59106;BME280;44891;50.204;8.132;2022-08-30T01:18:08;98552.50;;;12.92;67.14
59106;BME280;44891;50.204;8.132;2022-08-30T01:22:18;98562.97;;;12.87;67.34
59106;BME280;44891;50.204;8.132;2022-08-30T01:26:24;98567.94;;;12.83;67.47
59106;BME280;44891;50.204;8.132;2022-08-30T01:30:27;98568.38;;;12.75;67.85
59106;BME280;44891;50.204;8.132;2022-08-30T01:34:29;98581.09;;;12.61;68.20
59106;BME280;44891;50.204;8.132;2022-08-30T01:38:34;98547.47;;;12.68;67.28
59106;BME280;44891;50.204;8.132;2022-08-30T01:42:38;98567.25;;;12.71;67.66
59106;BME280;44891;50.204;8.132;2022-08-30T01:46:43;98557.94;;;12.85;67.53
59106;BME280;44891;50.204;8.132;2022-08-30T01:50:46;98568.72;;;12.62;68.35
59106;BME280;44891;50.204;8.132;2022-08-30T01:54:48;98562.75;;;12.88;67.22
59106;BME280;44891;50.204;8.132;2022-08-30T01:58:52;98561.28;;;12.97;66.07
59106;BME280;44891;50.204;8.132;2022-08-30T02:02:54;98590.50;;;12.40;68.41
59106;BME280;44891;50.204;8.132;2022-08-30T02:06:57;98585.31;;;12.62;67.54
59106;BME280;44891;50.204;8.132;2022-08-30T02:11:01;98587.88;;;12.40;68.16
59106;BME280;44891;50.204;8.132;2022-08-30T02:15:06;98582.13;;;12.43;67.97
59106;BME280;44891;50.204;8.132;2022-08-30T02:19:08;98564.25;;;12.62;67.31
59106;BME280;44891;50.204;8.132;2022-08-30T02:23:11;98596.16;;;12.66;67.23
59106;BME280;44891;50.204;8.132;2022-08-30T02:27:13;98581.50;;;12.19;68.80
59106;BME280;44891;50.204;8.132;2022-08-30T02:31:16;98596.25;;;12.04;69.43
59106;BME280;44891;50.204;8.132;2022-08-30T02:35:19;98599.38;;;12.17;69.43
59106;BME280;44891;50.204;8.132;2022-08-30T02:39:21;98582.88;;;12.22;68.71
59106;BME280;44891;50.204;8.132;2022-08-30T02:43:24;98569.75;;;12.27;68.79
59106;BME280;44891;50.204;8.132;2022-08-30T02:47:28;98552.16;;;12.11;68.91
59106;BME280;44891;50.204;8.132;2022-08-30T02:51:30;98534.41;;;12.06;69.17
59106;BME280;44891;50.204;8.132;2022-08-30T02:55:32;98559.00;;;11.66;70.78
59106;BME280;44891;50.204;8.132;2022-08-30T02:59:34;98547.59;;;12.23;69.05
59106;BME280;44891;50.204;8.132;2022-08-30T03:03:45;98552.69;;;11.96;70.20
59106;BME280;44891;50.204;8.132;2022-08-30T03:07:47;98556.19;;;12.02;69.69
59106;BME280;44891;50.204;8.132;2022-08-30T03:11:49;98536.47;;;11.87;69.78
59106;BME280;44891;50.204;8.132;2022-08-30T03:15:51;98544.16;;;12.06;69.76
59106;BME280;44891;50.204;8.132;2022-08-30T03:19:55;98498.19;;;11.63;70.24
59106;BME280;44891;50.204;8.132;2022-08-30T03:23:58;98550.94;;;12.18;69.47
59106;BME280;44891;50.204;8.132;2022-08-30T03:28:00;98552.44;;;12.31;68.50
59106;BME280;44891;50.204;8.132;2022-08-30T03:32:03;98558.53;;;11.98;69.25
59106;BME280;44891;50.204;8.132;2022-08-30T03:36:07;98565.69;;;11.57;70.86
59106;BME280;44891;50.204;8.132;2022-08-30T03:40:11;98565.38;;;11.42;71.58
59106;BME280;44891;50.204;8.132;2022-08-30T03:44:14;98566.94;;;11.55;71.35
59106;BME280;44891;50.204;8.132;2022-08-30T03:48:16;98553.69;;;11.78;70.42
59106;BME280;44891;50.204;8.132;2022-08-30T03:52:19;98551.13;;;11.38;72.18
59106;BME280;44891;50.204;8.132;2022-08-30T03:56:21;98548.53;;;11.55;71.83
59106;BME280;44891;50.204;8.132;2022-08-30T04:00:24;98544.44;;;11.47;71.44
59106;BME280;44891;50.204;8.132;2022-08-30T04:04:26;98549.75;;;11.35;72.03
59106;BME280;44891;50.204;8.132;2022-08-30T04:08:30;98558.59;;;11.29;72.11
59106;BME280;44891;50.204;8.132;2022-08-30T04:12:32;98551.38;;;11.36;72.34
59106;BME280;44891;50.204;8.132;2022-08-30T04:16:34;98552.03;;;11.60;71.45
59106;BME280;44891;50.204;8.132;2022-08-30T04:20:36;98550.03;;;11.51;71.86
59106;BME280;44891;50.204;8.132;2022-08-30T04:24:40;98554.06;;;11.13;73.14
59106;BME280;44891;50.204;8.132;2022-08-30T04:28:42;98550.69;;;11.58;71.82
59106;BME280;44891;50.204;8.132;2022-08-30T04:32:44;98559.59;;;11.28;71.92
59106;BME280;44891;50.204;8.132;2022-08-30T04:36:47;98566.69;;;11.28;72.01
59106;BME280;44891;50.204;8.132;2022-08-30T04:40:51;98573.78;;;11.27;71.96
59106;BME280;44891;50.204;8.132;2022-08-30T04:44:54;98563.09;;;11.46;70.91
59106;BME280;44891;50.204;8.132;2022-08-30T04:48:56;98572.25;;;11.71;70.97
59106;BME280;44891;50.204;8.132;2022-08-30T04:52:58;98479.56;;;10.55;72.21
59106;BME280;44891;50.204;8.132;2022-08-30T04:57:02;98559.13;;;10.91;72.88
59106;BME280;44891;50.204;8.132;2022-08-30T05:01:04;98530.56;;;10.95;72.78
59106;BME280;44891;50.204;8.132;2022-08-30T05:05:12;98570.69;;;11.30;72.66
59106;BME280;44891;50.204;8.132;2022-08-30T05:09:32;98569.25;;;11.51;71.57
59106;BME280;44891;50.204;8.132;2022-08-30T05:13:36;98546.94;;;11.25;71.30
59106;BME280;44891;50.204;8.132;2022-08-30T05:17:38;98591.22;;;11.74;70.99
59106;BME280;44891;50.204;8.132;2022-08-30T05:21:41;98591.56;;;11.77;71.32
59106;BME280;44891;50.204;8.132;2022-08-30T05:25:43;98605.75;;;11.76;71.17
59106;BME280;44891;50.204;8.132;2022-08-30T05:29:47;98591.25;;;11.62;71.58
59106;BME280;44891;50.204;8.132;2022-08-30T05:33:50;98604.63;;;11.72;71.47
59106;BME280;44891;50.204;8.132;2022-08-30T05:37:52;98601.19;;;12.00;70.25
59106;BME280;44891;50.204;8.132;2022-08-30T05:41:55;98608.53;;;11.98;70.82
59106;BME280;44891;50.204;8.132;2022-08-30T05:45:59;98605.84;;;12.27;69.95
59106;BME280;44891;50.204;8.132;2022-08-30T05:50:02;98570.38;;;12.01;70.73
59106;BME280;44891;50.204;8.132;2022-08-30T05:54:07;98596.97;;;12.33;70.89
59106;BME280;44891;50.204;8.132;2022-08-30T05:58:09;98594.91;;;12.51;70.68
59106;BME280;44891;50.204;8.132;2022-08-30T06:02:12;98576.09;;;12.82;68.66
59106;BME280;44891;50.204;8.132;2022-08-30T06:06:14;98583.41;;;12.96;68.73
59106;BME280;44891;50.204;8.132;2022-08-30T06:10:16;98568.28;;;13.09;68.25
59106;BME280;44891;50.204;8.132;2022-08-30T06:14:19;98583.34;;;13.57;66.72
59106;BME280;44891;50.204;8.132;2022-08-30T06:18:23;98583.59;;;13.55;66.93
59106;BME280;44891;50.204;8.132;2022-08-30T06:22:25;98590.72;;;13.82;65.93
59106;BME280;44891;50.204;8.132;2022-08-30T06:26:28;98549.03;;;13.84;65.69
59106;BME280;44891;50.204;8.132;2022-08-30T06:30:31;98587.69;;;14.27;65.39
59106;BME280;44891;50.204;8.132;2022-08-30T06:34:34;98588.66;;;14.48;64.50
59106;BME280;44891;50.204;8.132;2022-08-30T06:38:39;98547.97;;;14.49;64.39
59106;BME280;44891;50.204;8.132;2022-08-30T06:42:41;98595.75;;;14.80;64.59
59106;BME280;44891;50.204;8.132;2022-08-30T06:46:43;98598.59;;;15.20;63.61
59106;BME280;44891;50.204;8.132;2022-08-30T06:50:53;98594.97;;;15.47;62.19
59106;BME280;44891;50.204;8.132;2022-08-30T06:54:55;98600.09;;;15.74;62.20
59106;BME280;44891;50.204;8.132;2022-08-30T06:58:58;98597.50;;;16.04;61.69
59106;BME280;44891;50.204;8.132;2022-08-30T07:03:00;98607.31;;;16.24;61.18
59106;BME280;44891;50.204;8.132;2022-08-30T07:07:04;98603.31;;;16.63;60.27
59106;BME280;44891;50.204;8.132;2022-08-30T07:11:07;98599.56;;;16.89;59.82
59106;BME280;44891;50.204;8.132;2022-08-30T07:15:10;98608.53;;;17.08;59.15
59106;BME280;44891;50.204;8.132;2022-08-30T07:19:12;98563.13;;;17.10;59.12
59106;BME280;44891;50.204;8.132;2022-08-30T07:23:16;98607.56;;;17.54;57.80
59106;BME280;44891;50.204;8.132;2022-08-30T07:27:18;98608.25;;;17.75;56.79
59106;BME280;44891;50.204;8.132;2022-08-30T07:31:20;98588.25;;;17.87;56.08
59106;BME280;44891;50.204;8.132;2022-08-30T07:35:23;98611.66;;;18.25;55.56
59106;BME280;44891;50.204;8.132;2022-08-30T07:39:26;98587.06;;;18.38;55.11
59106;BME280;44891;50.204;8.132;2022-08-30T07:43:29;98619.41;;;18.50;55.80
59106;BME280;44891;50.204;8.132;2022-08-30T07:47:31;98615.72;;;18.75;55.08
59106;BME280;44891;50.204;8.132;2022-08-30T07:51:33;98611.84;;;18.91;54.23
59106;BME280;44891;50.204;8.132;2022-08-30T07:55:38;98610.72;;;18.97;54.71
59106;BME280;44891;50.204;8.132;2022-08-30T07:59:40;98612.88;;;19.19;54.00
59106;BME280;44891;50.204;8.132;2022-08-30T08:03:43;98613.66;;;19.44;53.76
59106;BME280;44891;50.204;8.132;2022-08-30T08:07:46;98616.06;;;19.64;53.65
59106;BME280;44891;50.204;8.132;2022-08-30T08:11:49;98613.00;;;19.76;53.32
59106;BME280;44891;50.204;8.132;2022-08-30T08:15:51;98618.09;;;19.91;52.68
59106;BME280;44891;50.204;8.132;2022-08-30T08:19:54;98617.25;;;20.28;52.01
59106;BME280;44891;50.204;8.132;2022-08-30T08:23:56;98619.44;;;20.59;51.31
59106;BME280;44891;50.204;8.132;2022-08-30T08:27:59;98620.00;;;20.88;50.80
59106;BME280;44891;50.204;8.132;2022-08-30T08:32:02;98622.75;;;21.11;50.66
59106;BME280;44891;50.204;8.132;2022-08-30T08:36:05;98620.09;;;21.38;49.64
59106;BME280;44891;50.204;8.132;2022-08-30T08:40:08;98626.31;;;21.61;48.36
59106;BME280;44891;50.204;8.132;2022-08-30T08:44:30;98621.09;;;21.79;48.58
59106;BME280;44891;50.204;8.132;2022-08-30T08:48:39;98625.81;;;21.95;47.83
59106;BME280;44891;50.204;8.132;2022-08-30T08:52:47;98624.78;;;22.05;47.41
59106;BME280;44891;50.204;8.132;2022-08-30T08:57:08;98611.34;;;22.10;47.39
59106;BME280;44891;50.204;8.132;2022-08-30T09:01:14;98608.97;;;22.31;46.56
59106;BME280;44891;50.204;8.132;2022-08-30T09:05:17;98607.19;;;22.49;45.35
59106;BME280;44891;50.204;8.132;2022-08-30T09:09:26;98605.22;;;22.94;44.83
59106;BME280;44891;50.204;8.132;2022-08-30T09:13:30;98598.50;;;23.05;44.66
59106;BME280;44891;50.204;8.132;2022-08-30T09:17:48;98598.84;;;23.21;43.46
59106;BME280;44891;50.204;8.132;2022-08-30T09:21:55;98594.78;;;23.41;43.44
59106;BME280;44891;50.204;8.132;2022-08-30T09:26:00;98590.69;;;23.35;42.55
59106;BME280;44891;50.204;8.132;2022-08-30T09:30:06;98570.66;;;23.41;43.31
59106;BME280;44891;50.204;8.132;2022-08-30T09:34:16;98574.50;;;23.66;42.80
59106;BME280;44891;50.204;8.132;2022-08-30T09:38:20;98549.09;;;23.90;41.18
59106;BME280;44891;50.204;8.132;2022-08-30T09:42:25;98567.34;;;24.39;40.47
59106;BME280;44891;50.204;8.132;2022-08-30T09:46:28;98558.75;;;24.63;38.84
59106;BME280;44891;50.204;8.132;2022-08-30T09:50:33;98560.34;;;24.56;38.67
59106;BME280;44891;50.204;8.132;2022-08-30T09:54:43;98550.81;;;24.67;37.74
59106;BME280;44891;50.204;8.132;2022-08-30T09:58:56;98549.25;;;24.95;37.06
59106;BME280;44891;50.204;8.132;2022-08-30T10:03:20;98543.09;;;24.95;36.93
59106;BME280;44891;50.204;8.132;2022-08-30T10:07:26;98549.22;;;25.34;36.70
59106;BME280;44891;50.204;8.132;2022-08-30T10:11:35;98540.97;;;25.60;37.32
59106;BME280;44891;50.204;8.132;2022-08-30T10:15:41;98538.50;;;25.75;36.20
59106;BME280;44891;50.204;8.132;2022-08-30T10:19:56;98536.84;;;25.83;35.72
59106;BME280;44891;50.204;8.132;2022-08-30T10:24:06;98530.59;;;25.91;36.13
59106;BME280;44891;50.204;8.132;2022-08-30T10:28:13;98518.88;;;26.08;35.32
59106;BME280;44891;50.204;8.132;2022-08-30T10:32:21;98528.69;;;26.37;35.15
59106;BME280;44891;50.204;8.132;2022-08-30T10:36:30;98525.09;;;26.33;34.31
59106;BME280;44891;50.204;8.132;2022-08-30T10:40:36;98519.31;;;26.43;34.35
59106;BME280;44891;50.204;8.132;2022-08-30T10:45:01;98496.53;;;26.65;34.32
59106;BME280;44891;50.204;8.132;2022-08-30T10:49:09;98513.91;;;26.80;34.07
59106;BME280;44891;50.204;8.132;2022-08-30T10:53:16;98516.16;;;26.90;32.95
59106;BME280;44891;50.204;8.132;2022-08-30T10:57:20;98519.97;;;27.14;32.87
59106;BME280;44891;50.204;8.132;2022-08-30T11:01:35;98505.47;;;27.18;32.44
59106;BME280;44891;50.204;8.132;2022-08-30T11:06:02;98507.97;;;27.51;33.00
59106;BME280;44891;50.204;8.132;2022-08-30T11:10:17;98507.19;;;27.51;32.84
59106;BME280;44891;50.204;8.132;2022-08-30T11:14:24;98506.06;;;27.80;32.15
59106;BME280;44891;50.204;8.132;2022-08-30T11:18:28;98497.13;;;27.63;31.02
59106;BME280;44891;50.204;8.132;2022-08-30T11:22:33;98493.59;;;27.87;31.77
59106;BME280;44891;50.204;8.132;2022-08-30T11:27:01;98491.56;;;27.84;31.40
59106;BME280;44891;50.204;8.132;2022-08-30T11:31:06;98481.34;;;28.22;31.48
59106;BME280;44891;50.204;8.132;2022-08-30T11:35:09;98492.34;;;28.44;30.52
59106;BME280;44891;50.204;8.132;2022-08-30T11:39:41;98486.09;;;28.91;29.93
59106;BME280;44891;50.204;8.132;2022-08-30T11:43:51;98463.75;;;28.59;29.68
59106;BME280;44891;50.204;8.132;2022-08-30T11:47:57;98474.09;;;27.26;31.65
59106;BME280;44891;50.204;8.132;2022-08-30T11:52:13;98478.25;;;27.35;31.42
59106;BME280;44891;50.204;8.132;2022-08-30T11:56:21;98469.19;;;27.84;31.05
59106;BME280;44891;50.204;8.132;2022-08-30T12:00:31;98471.16;;;28.47;31.10
59106;BME280;44891;50.204;8.132;2022-08-30T12:04:42;98432.44;;;28.58;29.36
59106;BME280;44891;50.204;8.132;2022-08-30T12:08:50;98459.69;;;27.74;31.34
59106;BME280;44891;50.204;8.132;2022-08-30T12:12:54;98461.91;;;28.16;30.36
59106;BME280;44891;50.204;8.132;2022-08-30T12:16:58;98456.84;;;29.13;30.02
59106;BME280;44891;50.204;8.132;2022-08-30T12:21:25;98451.28;;;28.55;29.91
59106;BME280;44891;50.204;8.132;2022-08-30T12:25:31;98456.97;;;29.20;29.37
59106;BME280;44891;50.204;8.132;2022-08-30T12:29:33;98457.16;;;28.76;29.06
59106;BME280;44891;50.204;8.132;2022-08-30T12:33:40;98433.28;;;29.33;28.85
59106;BME280;44891;50.204;8.132;2022-08-30T12:37:42;98447.28;;;29.58;28.95
59106;BME280;44891;50.204;8.132;2022-08-30T12:41:44;98447.06;;;29.47;28.52
59106;BME280;44891;50.204;8.132;2022-08-30T12:45:47;98448.22;;;29.27;28.28
59106;BME280;44891;50.204;8.132;2022-08-30T12:49:52;98445.81;;;29.60;28.91
59106;BME280;44891;50.204;8.132;2022-08-30T12:54:03;98440.81;;;29.23;29.27
59106;BME280;44891;50.204;8.132;2022-08-30T12:58:07;98437.78;;;29.87;28.69
59106;BME280;44891;50.204;8.132;2022-08-30T13:02:11;98440.16;;;29.11;28.85
59106;BME280;44891;50.204;8.132;2022-08-30T13:06:35;98440.78;;;29.82;28.03
59106;BME280;44891;50.204;8.132;2022-08-30T13:10:48;98422.09;;;31.28;26.69
59106;BME280;44891;50.204;8.132;2022-08-30T13:14:51;98428.47;;;31.43;26.08
59106;BME280;44891;50.204;8.132;2022-08-30T13:19:25;98420.91;;;31.63;25.92
59106;BME280;44891;50.204;8.132;2022-08-30T13:23:22;98412.06;;;32.10;25.66
59106;BME280;44891;50.204;8.132;2022-08-30T13:27:25;98416.34;;;31.33;26.07
59106;BME280;44891;50.204;8.132;2022-08-30T13:31:28;98409.81;;;31.08;26.39
59106;BME280;44891;50.204;8.132;2022-08-30T13:35:31;98403.50;;;31.00;26.06
59106;BME280;44891;50.204;8.132;2022-08-30T13:39:35;98392.94;;;31.96;25.50
59106;BME280;44891;50.204;8.132;2022-08-30T13:43:37;98393.00;;;33.56;23.67
59106;BME280;44891;50.204;8.132;2022-08-30T13:47:39;98387.00;;;36.67;21.09
59106;BME280;44891;50.204;8.132;2022-08-30T13:51:41;98393.09;;;35.40;21.37
59106;BME280;44891;50.204;8.132;2022-08-30T13:55:44;98388.59;;;34.91;21.21
59106;BME280;44891;50.204;8.132;2022-08-30T13:59:46;98392.31;;;35.32;21.08
59106;BME280;44891;50.204;8.132;2022-08-30T14:03:49;98387.03;;;35.07;21.01
59106;BME280;44891;50.204;8.132;2022-08-30T14:07:51;98373.41;;;44.16;14.62
59106;BME280;44891;50.204;8.132;2022-08-30T14:11:54;98366.09;;;40.32;16.41
59106;BME280;44891;50.204;8.132;2022-08-30T14:15:59;98374.22;;;34.94;21.25
59106;BME280;44891;50.204;8.132;2022-08-30T14:20:01;98369.59;;;34.66;21.83
59106;BME280;44891;50.204;8.132;2022-08-30T14:24:04;98376.94;;;31.17;25.46
59106;BME280;44891;50.204;8.132;2022-08-30T14:28:07;98366.56;;;30.09;26.44
59106;BME280;44891;50.204;8.132;2022-08-30T14:32:09;98365.25;;;30.22;26.77
59106;BME280;44891;50.204;8.132;2022-08-30T14:36:11;98355.03;;;35.71;20.97
59106;BME280;44891;50.204;8.132;2022-08-30T14:40:14;98349.78;;;38.08;18.28
59106;BME280;44891;50.204;8.132;2022-08-30T14:44:19;98342.47;;;42.48;15.00
59106;BME280;44891;50.204;8.132;2022-08-30T14:48:22;98341.69;;;43.22;14.12
59106;BME280;44891;50.204;8.132;2022-08-30T14:52:24;98333.22;;;48.34;11.57
59106;BME280;44891;50.204;8.132;2022-08-30T14:56:26;98330.22;;;40.07;15.94
59106;BME280;44891;50.204;8.132;2022-08-30T15:00:29;98325.50;;;38.70;17.67
59106;BME280;44891;50.204;8.132;2022-08-30T15:04:31;98305.28;;;40.97;15.74
59106;BME280;44891;50.204;8.132;2022-08-30T15:08:34;98310.22;;;42.01;14.57
59106;BME280;44891;50.204;8.132;2022-08-30T15:12:37;98310.53;;;40.37;15.78
59106;BME280;44891;50.204;8.132;2022-08-30T15:16:43;98314.19;;;43.28;13.85
59106;BME280;44891;50.204;8.132;2022-08-30T15:20:46;98302.34;;;44.32;13.13
59106;BME280;44891;50.204;8.132;2022-08-30T15:24:48;98300.63;;;43.52;13.63
59106;BME280;44891;50.204;8.132;2022-08-30T15:28:51;98308.06;;;41.83;14.25
59106;BME280;44891;50.204;8.132;2022-08-30T15:32:54;98290.41;;;45.91;11.81
59106;BME280;44891;50.204;8.132;2022-08-30T15:36:57;98298.91;;;45.64;12.40
59106;BME280;44891;50.204;8.132;2022-08-30T15:41:01;98297.72;;;40.72;15.44
59106;BME280;44891;50.204;8.132;2022-08-30T15:45:05;98276.00;;;40.20;16.06
59106;BME280;44891;50.204;8.132;2022-08-30T15:49:11;98290.72;;;37.02;18.55
59106;BME280;44891;50.204;8.132;2022-08-30T15:53:14;98295.28;;;33.33;22.89
59106;BME280;44891;50.204;8.132;2022-08-30T15:57:16;98272.78;;;36.37;19.00
59106;BME280;44891;50.204;8.132;2022-08-30T16:01:18;98281.38;;;36.35;19.18
59106;BME280;44891;50.204;8.132;2022-08-30T16:05:22;98281.28;;;33.27;22.23
59106;BME280;44891;50.204;8.132;2022-08-30T16:09:24;98274.97;;;30.45;25.42
59106;BME280;44891;50.204;8.132;2022-08-30T16:13:26;98280.25;;;30.08;26.45
59106;BME280;44891;50.204;8.132;2022-08-30T16:17:29;98267.75;;;29.99;26.62
59106;BME280;44891;50.204;8.132;2022-08-30T16:21:33;98288.88;;;29.90;26.28
59106;BME280;44891;50.204;8.132;2022-08-30T16:25:36;98258.47;;;29.05;26.65
59106;BME280;44891;50.204;8.132;2022-08-30T16:29:38;98282.59;;;29.14;27.03
59106;BME280;44891;50.204;8.132;2022-08-30T16:33:42;98264.53;;;28.79;28.08
59106;BME280;44891;50.204;8.132;2022-08-30T16:37:45;98262.25;;;28.81;28.37
59106;BME280;44891;50.204;8.132;2022-08-30T16:41:47;98253.09;;;28.12;29.07
59106;BME280;44891;50.204;8.132;2022-08-30T16:45:50;98264.81;;;27.84;30.26
59106;BME280;44891;50.204;8.132;2022-08-30T16:49:53;98254.13;;;27.88;29.65
59106;BME280;44891;50.204;8.132;2022-08-30T16:53:58;98276.72;;;27.99;30.19
59106;BME280;44891;50.204;8.132;2022-08-30T16:58:02;98280.75;;;27.89;30.13
59106;BME280;44891;50.204;8.132;2022-08-30T17:02:04;98243.41;;;27.44;30.10
59106;BME280;44891;50.204;8.132;2022-08-30T17:06:06;98242.19;;;27.26;30.74
59106;BME280;44891;50.204;8.132;2022-08-30T17:10:10;98248.47;;;27.14;31.26
59106;BME280;44891;50.204;8.132;2022-08-30T17:14:12;98279.59;;;26.99;31.72
59106;BME280;44891;50.204;8.132;2022-08-30T17:18:16;98287.63;;;26.68;32.66
59106;BME280;44891;50.204;8.132;2022-08-30T17:22:18;98289.81;;;26.50;32.57
59106;BME280;44891;50.204;8.132;2022-08-30T17:26:22;98294.41;;;26.37;32.83
59106;BME280;44891;50.204;8.132;2022-08-30T17:30:24;98302.41;;;26.21;33.43
59106;BME280;44891;50.204;8.132;2022-08-30T17:34:26;98300.16;;;26.11;33.44
59106;BME280;44891;50.204;8.132;2022-08-30T17:38:28;98306.13;;;26.05;33.58
59106;BME280;44891;50.204;8.132;2022-08-30T17:42:32;98312.28;;;25.81;34.34
59106;BME280;44891;50.204;8.132;2022-08-30T17:46:35;98309.00;;;25.75;34.29
59106;BME280;44891;50.204;8.132;2022-08-30T17:50:37;98292.81;;;25.38;34.68
59106;BME280;44891;50.204;8.132;2022-08-30T17:54:39;98316.88;;;25.35;35.02
59106;BME280;44891;50.204;8.132;2022-08-30T17:58:43;98326.53;;;25.36;35.14
59106;BME280;44891;50.204;8.132;2022-08-30T18:02:46;98330.28;;;25.10;35.62
59106;BME280;44891;50.204;8.132;2022-08-30T18:06:49;98337.00;;;25.16;35.66
59106;BME280;44891;50.204;8.132;2022-08-30T18:10:51;98341.03;;;25.02;35.74
59106;BME280;44891;50.204;8.132;2022-08-30T18:14:54;98348.41;;;24.72;36.49
59106;BME280;44891;50.204;8.132;2022-08-30T18:18:56;98321.03;;;24.28;37.27
59106;BME280;44891;50.204;8.132;2022-08-30T18:22:58;98353.41;;;24.31;38.09
59106;BME280;44891;50.204;8.132;2022-08-30T18:27:01;98327.72;;;23.92;39.01
59106;BME280;44891;50.204;8.132;2022-08-30T18:31:05;98367.34;;;24.16;39.78
59106;BME280;44891;50.204;8.132;2022-08-30T18:35:08;98301.31;;;23.65;38.93
59106;BME280;44891;50.204;8.132;2022-08-30T18:39:10;98361.81;;;23.92;38.44
59106;BME280;44891;50.204;8.132;2022-08-30T18:43:12;98313.34;;;23.41;39.23
59106;BME280;44891;50.204;8.132;2022-08-30T18:47:16;98334.66;;;23.29;40.12
59106;BME280;44891;50.204;8.132;2022-08-30T18:51:20;98314.38;;;22.85;41.46
59106;BME280;44891;50.204;8.132;2022-08-30T18:55:22;98371.41;;;23.11;41.41
59106;BME280;44891;50.204;8.132;2022-08-30T18:59:24;98327.41;;;22.69;41.61
59106;BME280;44891;50.204;8.132;2022-08-30T19:03:28;98356.88;;;22.69;42.50
59106;BME280;44891;50.204;8.132;2022-08-30T19:07:30;98324.25;;;22.41;42.56
59106;BME280;44891;50.204;8.132;2022-08-30T19:11:32;98362.50;;;22.50;42.13
59106;BME280;44891;50.204;8.132;2022-08-30T19:15:34;98369.31;;;22.65;41.80
59106;BME280;44891;50.204;8.132;2022-08-30T19:19:38;98363.00;;;22.52;42.40
59106;BME280;44891;50.204;8.132;2022-08-30T19:23:41;98375.13;;;22.58;42.39
59106;BME280;44891;50.204;8.132;2022-08-30T19:27:43;98346.50;;;22.10;43.35
59106;BME280;44891;50.204;8.132;2022-08-30T19:31:45;98342.00;;;21.80;44.35
59106;BME280;44891;50.204;8.132;2022-08-30T19:35:49;98361.25;;;21.99;44.26
59106;BME280;44891;50.204;8.132;2022-08-30T19:39:51;98391.19;;;21.79;45.58
59106;BME280;44891;50.204;8.132;2022-08-30T19:43:54;98372.13;;;21.40;46.54
59106;BME280;44891;50.204;8.132;2022-08-30T19:47:57;98388.81;;;21.46;46.81
59106;BME280;44891;50.204;8.132;2022-08-30T19:52:00;98389.81;;;21.14;47.42
59106;BME280;44891;50.204;8.132;2022-08-30T19:56:03;98340.03;;;20.59;47.99
59106;BME280;44891;50.204;8.132;2022-08-30T20:00:08;98404.22;;;20.90;48.38
59106;BME280;44891;50.204;8.132;2022-08-30T20:04:14;98417.53;;;20.68;49.27
59106;BME280;44891;50.204;8.132;2022-08-30T20:08:17;98370.97;;;20.74;48.59
59106;BME280;44891;50.204;8.132;2022-08-30T20:12:19;98388.47;;;20.53;49.57
59106;BME280;44891;50.204;8.132;2022-08-30T20:16:21;98426.09;;;20.37;50.02
59106;BME280;44891;50.204;8.132;2022-08-30T20:20:24;98366.94;;;19.94;50.28
59106;BME280;44891;50.204;8.132;2022-08-30T20:24:27;98428.59;;;20.34;50.17
59106;BME280;44891;50.204;8.132;2022-08-30T20:28:30;98325.97;;;19.44;51.08
59106;BME280;44891;50.204;8.132;2022-08-30T20:32:32;98433.22;;;20.28;50.61
59106;BME280;44891;50.204;8.132;2022-08-30T20:36:37;98438.16;;;20.35;50.51
59106;BME280;44891;50.204;8.132;2022-08-30T20:40:40;98377.94;;;19.60;51.73
59106;BME280;44891;50.204;8.132;2022-08-30T20:44:44;98401.19;;;19.54;52.12
59106;BME280;44891;50.204;8.132;2022-08-30T20:48:46;98433.09;;;19.60;52.90
59106;BME280;44891;50.204;8.132;2022-08-30T20:52:48;98429.47;;;19.69;52.56
59106;BME280;44891;50.204;8.132;2022-08-30T20:56:52;98409.75;;;19.70;52.23
59106;BME280;44891;50.204;8.132;2022-08-30T21:00:54;98387.25;;;19.76;51.92
59106;BME280;44891;50.204;8.132;2022-08-30T21:04:56;98405.44;;;19.55;53.01
59106;BME280;44891;50.204;8.132;2022-08-30T21:08:59;98429.94;;;19.39;53.83
59106;BME280;44891;50.204;8.132;2022-08-30T21:13:03;98432.28;;;19.40;53.99
59106;BME280;44891;50.204;8.132;2022-08-30T21:17:05;98430.47;;;19.22;54.56
59106;BME280;44891;50.204;8.132;2022-08-30T21:21:08;98428.00;;;19.07;54.50
59106;BME280;44891;50.204;8.132;2022-08-30T21:25:10;98363.78;;;18.76;54.42
59106;BME280;44891;50.204;8.132;2022-08-30T21:29:14;98416.78;;;19.10;54.11
59106;BME280;44891;50.204;8.132;2022-08-30T21:33:16;98384.25;;;18.75;54.80